createdAt,value
2023-05-08T00:00:04.544Z,1.1
2023-05-08T00:02:02.433Z,1.1
2023-05-08T00:04:02.977Z,1.1
2023-05-08T00:06:05.125Z,1.0
2023-05-08T00:08:03.101Z,1.1
2023-05-08T00:10:03.500Z,1.1
2023-05-08T00:12:02.376Z,1.1
2023-05-08T00:14:02.628Z,1.2
2023-05-08T00:16:03.509Z,1.2
2023-05-08T00:18:03.035Z,1.1
2023-05-08T00:20:03.234Z,1.1
2023-05-08T00:22:02.620Z,1.2
2023-05-08T00:24:02.384Z,1.2
2023-05-08T00:26:02.426Z,1.1
2023-05-08T00:28:03.556Z,1.1
2023-05-08T00:30:02.444Z,1.2
2023-05-08T00:32:03.321Z,1.2
2023-05-08T00:34:03.299Z,1.3
2023-05-08T00:36:04.298Z,1.1
2023-05-08T00:38:02.929Z,1.2
2023-05-08T00:40:03.632Z,1.2
2023-05-08T00:42:02.379Z,1.2
2023-05-08T00:44:02.438Z,1.5
2023-05-08T00:46:03.428Z,1.3
2023-05-08T00:48:03.513Z,1.5
2023-05-08T00:50:03.463Z,1.2
2023-05-08T00:52:07.959Z,1.4
2023-05-08T00:54:03.154Z,1.3
2023-05-08T00:56:03.434Z,1.2
2023-05-08T00:58:02.909Z,1.1
2023-05-08T01:00:05.279Z,1.1
2023-05-08T01:02:03.182Z,1.1
2023-05-08T01:04:03.335Z,1.3
2023-05-08T01:06:03.182Z,1.1
2023-05-08T01:08:03.380Z,1.1
2023-05-08T01:10:03.002Z,1.1
2023-05-08T01:12:15.820Z,1.2
2023-05-08T01:14:12.184Z,1.2
2023-05-08T01:16:11.926Z,1.2
2023-05-08T01:18:14.229Z,1.2
2023-05-08T01:20:14.171Z,1.3
2023-05-08T01:22:17.435Z,1.1
2023-05-08T01:24:21.431Z,1.2
2023-05-08T01:26:21.520Z,1.1
2023-05-08T01:28:21.503Z,1.2
2023-05-08T01:30:16.346Z,1.2
2023-05-08T01:32:12.127Z,1.2
2023-05-08T01:34:06.989Z,1.1
2023-05-08T01:36:15.204Z,1.2
2023-05-08T01:38:14.932Z,1.0
2023-05-08T01:40:13.091Z,1.3
2023-05-08T01:42:07.785Z,1.3
2023-05-08T01:44:13.495Z,1.1
2023-05-08T01:46:09.478Z,1.2
2023-05-08T01:48:07.875Z,1.1
2023-05-08T01:50:08.581Z,1.2
2023-05-08T01:52:09.494Z,1.2
2023-05-08T01:54:10.313Z,1.1
2023-05-08T01:56:10.577Z,1.2
2023-05-08T01:58:07.220Z,1.1
2023-05-08T02:00:04.661Z,1.1
2023-05-08T02:02:03.749Z,1.3
2023-05-08T02:04:06.251Z,1.2
2023-05-08T02:06:03.234Z,1.2
2023-05-08T02:08:04.006Z,1.1
2023-05-08T02:10:04.510Z,1.1
2023-05-08T02:12:03.715Z,1.1
2023-05-08T02:14:04.629Z,1.2
2023-05-08T02:16:05.481Z,1.2
2023-05-08T02:18:05.611Z,1.2
2023-05-08T02:20:04.683Z,1.1
2023-05-08T02:22:05.503Z,1.3
2023-05-08T02:24:04.217Z,1.2
2023-05-08T02:26:04.508Z,1.2
2023-05-08T02:28:04.410Z,1.2
2023-05-08T02:30:03.476Z,1.4
2023-05-08T02:32:07.013Z,1.2
2023-05-08T02:34:05.669Z,1.3
2023-05-08T02:36:04.263Z,1.3
2023-05-08T02:38:03.932Z,1.3
2023-05-08T02:40:06.830Z,1.4
2023-05-08T02:42:03.836Z,1.3
2023-05-08T02:44:03.662Z,1.2
2023-05-08T02:46:12.336Z,1.2
2023-05-08T02:48:10.656Z,1.3
2023-05-08T02:50:09.979Z,1.3
2023-05-08T02:52:08.982Z,1.2
2023-05-08T02:54:11.377Z,1.3
2023-05-08T02:56:08.893Z,1.2
2023-05-08T02:58:10.270Z,1.3
2023-05-08T03:00:12.485Z,1.2
2023-05-08T03:02:09.612Z,1.3
2023-05-08T03:04:07.864Z,1.5
2023-05-08T03:06:05.286Z,1.3
2023-05-08T03:08:08.381Z,1.3
2023-05-08T03:10:10.588Z,1.3
2023-05-08T03:12:08.443Z,1.3
2023-05-08T03:14:04.093Z,1.3
2023-05-08T03:16:06.501Z,1.3
2023-05-08T03:18:07.740Z,1.3
2023-05-08T03:20:05.692Z,1.4
2023-05-08T03:22:05.505Z,1.4
2023-05-08T03:24:06.736Z,1.5
2023-05-08T03:26:04.671Z,1.6
2023-05-08T03:28:06.454Z,1.3
2023-05-08T03:30:06.899Z,1.4
2023-05-08T03:32:03.748Z,1.3
2023-05-08T03:34:04.552Z,1.3
2023-05-08T03:36:03.814Z,1.4
2023-05-08T03:38:03.349Z,1.4
2023-05-08T03:40:03.839Z,1.3
2023-05-08T03:42:02.804Z,1.3
2023-05-08T03:44:03.851Z,1.6
2023-05-08T03:46:04.846Z,1.5
2023-05-08T03:48:04.974Z,1.5
2023-05-08T03:50:03.850Z,1.5
2023-05-08T03:52:02.732Z,1.6
2023-05-08T03:54:02.398Z,1.3
2023-05-08T03:56:03.365Z,1.4
2023-05-08T03:58:10.929Z,1.5
2023-05-08T04:00:13.703Z,1.5
2023-05-08T04:02:14.488Z,1.5
2023-05-08T04:04:10.513Z,1.5
2023-05-08T04:06:13.316Z,1.7
2023-05-08T04:08:09.479Z,1.5
2023-05-08T04:10:08.620Z,1.5
2023-05-08T04:12:09.632Z,1.4
2023-05-08T04:14:06.507Z,1.5
2023-05-08T04:16:07.955Z,1.5
2023-05-08T04:18:08.271Z,1.6
2023-05-08T04:20:05.021Z,1.6
2023-05-08T04:22:07.277Z,1.7
2023-05-08T04:24:04.543Z,1.4
2023-05-08T04:26:05.610Z,1.6
2023-05-08T04:28:03.996Z,1.4
2023-05-08T04:30:02.802Z,1.3
2023-05-08T04:32:05.369Z,1.5
2023-05-08T04:34:03.229Z,1.3
2023-05-08T04:36:03.233Z,1.3
2023-05-08T04:38:02.756Z,1.2
2023-05-08T04:40:03.713Z,1.4
2023-05-08T04:42:04.146Z,1.5
2023-05-08T04:44:04.697Z,1.4
2023-05-08T04:46:05.611Z,1.4
2023-05-08T04:48:02.403Z,1.5
2023-05-08T04:50:03.452Z,1.5
2023-05-08T04:52:02.795Z,1.7
2023-05-08T04:54:02.980Z,1.5
2023-05-08T04:56:02.637Z,1.5
2023-05-08T04:58:03.227Z,1.7
2023-05-08T05:00:03.597Z,1.5
2023-05-08T05:02:03.169Z,1.4
2023-05-08T05:04:03.263Z,1.5
2023-05-08T05:06:03.216Z,1.6
2023-05-08T05:08:03.572Z,1.7
2023-05-08T05:10:02.653Z,1.3
2023-05-08T05:12:02.403Z,1.6
2023-05-08T05:14:02.446Z,1.6
2023-05-08T05:16:03.273Z,1.6
2023-05-08T05:18:02.812Z,1.6
2023-05-08T05:20:02.682Z,1.6
2023-05-08T05:22:02.711Z,1.6
2023-05-08T05:24:02.389Z,1.8
2023-05-08T05:26:02.564Z,2.0
2023-05-08T05:28:03.433Z,1.5
2023-05-08T05:30:02.484Z,1.9
2023-05-08T05:32:02.860Z,1.4
2023-05-08T05:34:02.628Z,1.6
2023-05-08T05:36:03.421Z,1.4
2023-05-08T05:38:02.528Z,1.6
2023-05-08T05:40:02.813Z,1.9
2023-05-08T05:42:02.676Z,1.5
2023-05-08T05:44:02.627Z,1.5
2023-05-08T05:46:05.925Z,1.5
2023-05-08T05:48:02.466Z,1.3
2023-05-08T05:50:02.852Z,1.4
2023-05-08T05:52:02.658Z,1.5
2023-05-08T05:54:02.809Z,1.5
2023-05-08T05:56:02.444Z,1.4
2023-05-08T05:58:02.810Z,1.4
2023-05-08T06:00:03.693Z,1.4
2023-05-08T06:02:03.207Z,1.6
2023-05-08T06:04:02.552Z,1.3
2023-05-08T06:06:02.501Z,1.6
2023-05-08T06:08:02.537Z,1.4
2023-05-08T06:10:03.236Z,1.4
2023-05-08T06:12:03.689Z,1.4
2023-05-08T06:14:03.108Z,1.3
2023-05-08T06:16:03.298Z,1.4
2023-05-08T06:18:03.064Z,1.4
2023-05-08T06:20:03.059Z,1.3
2023-05-08T06:22:03.646Z,1.4
2023-05-08T06:24:03.092Z,1.3
2023-05-08T06:26:02.689Z,1.5
2023-05-08T06:28:03.723Z,1.5
2023-05-08T06:30:03.826Z,1.3
2023-05-08T06:32:02.415Z,1.4
2023-05-08T06:34:02.606Z,1.4
2023-05-08T06:36:05.755Z,1.3
2023-05-08T06:38:02.634Z,1.2
2023-05-08T06:40:14.253Z,1.5
2023-05-08T06:42:04.419Z,1.4
2023-05-08T06:44:02.462Z,1.3
2023-05-08T06:46:02.705Z,1.3
2023-05-08T06:48:02.658Z,1.4
2023-05-08T06:50:03.841Z,1.2
2023-05-08T06:52:02.746Z,1.4
2023-05-08T06:54:04.945Z,1.4
2023-05-08T06:56:02.405Z,1.4
2023-05-08T06:58:03.830Z,1.5
2023-05-08T07:00:03.677Z,1.6
2023-05-08T07:02:02.688Z,1.5
2023-05-08T07:04:02.458Z,1.3
2023-05-08T07:06:02.457Z,1.3
2023-05-08T07:08:02.411Z,1.5
2023-05-08T07:10:02.781Z,1.4
2023-05-08T07:12:02.525Z,1.6
2023-05-08T07:14:02.988Z,1.5
2023-05-08T07:16:02.967Z,1.4
2023-05-08T07:18:02.421Z,1.5
2023-05-08T07:20:02.910Z,1.3
2023-05-08T07:22:02.858Z,1.5
2023-05-08T07:24:02.450Z,1.6
2023-05-08T07:26:03.486Z,1.5
2023-05-08T07:28:02.519Z,1.2
2023-05-08T07:30:03.766Z,1.4
2023-05-08T07:32:03.130Z,1.5
2023-05-08T07:34:02.705Z,1.6
2023-05-08T07:36:02.422Z,1.4
2023-05-08T07:38:02.557Z,1.5
2023-05-08T07:40:03.213Z,1.5
2023-05-08T07:42:03.463Z,1.4
2023-05-08T07:44:02.716Z,1.2
2023-05-08T07:46:03.241Z,1.6
2023-05-08T07:48:02.446Z,1.4
2023-05-08T07:50:02.910Z,1.6
2023-05-08T07:52:02.495Z,1.6
2023-05-08T07:54:03.120Z,1.5
2023-05-08T07:56:03.418Z,1.6
2023-05-08T07:58:02.591Z,1.4
2023-05-08T08:00:03.071Z,1.8
2023-05-08T08:02:02.578Z,1.5
2023-05-08T08:04:02.525Z,1.5
2023-05-08T08:06:03.219Z,1.6
2023-05-08T08:08:02.393Z,1.6
2023-05-08T08:10:04.113Z,1.7
2023-05-08T08:12:02.614Z,1.7
2023-05-08T08:14:02.583Z,1.6
2023-05-08T08:16:03.618Z,1.6
2023-05-08T08:18:02.454Z,1.7
2023-05-08T08:20:03.191Z,1.4
2023-05-08T08:22:02.459Z,1.8
2023-05-08T08:24:02.585Z,1.8
2023-05-08T08:26:03.153Z,1.6
2023-05-08T08:28:02.655Z,1.5
2023-05-08T08:30:16.175Z,1.6
2023-05-08T08:32:03.149Z,1.6
2023-05-08T08:34:02.690Z,1.7
2023-05-08T08:36:03.120Z,1.6
2023-05-08T08:38:02.572Z,1.6
2023-05-08T08:40:02.847Z,1.7
2023-05-08T08:42:02.639Z,2.0
2023-05-08T08:44:03.029Z,1.8
2023-05-08T08:46:11.558Z,1.7
2023-05-08T08:48:04.213Z,1.8
2023-05-08T08:50:04.787Z,1.7
2023-05-08T08:52:11.449Z,1.7
2023-05-08T08:54:07.827Z,1.7
2023-05-08T08:56:07.956Z,1.6
2023-05-08T08:58:14.847Z,1.8
2023-05-08T09:00:08.249Z,1.7
2023-05-08T09:02:09.562Z,1.8
2023-05-08T09:04:03.254Z,1.7
2023-05-08T09:06:02.871Z,1.9
2023-05-08T09:08:03.349Z,1.8
2023-05-08T09:10:06.928Z,2.1
2023-05-08T09:12:02.634Z,1.8
2023-05-08T09:14:02.974Z,2.0
2023-05-08T09:16:03.320Z,1.9
2023-05-08T09:18:03.228Z,1.7
2023-05-08T09:20:02.814Z,1.7
2023-05-08T09:22:06.203Z,1.9
2023-05-08T09:24:04.511Z,1.9
2023-05-08T09:26:03.063Z,1.8
2023-05-08T09:28:16.173Z,1.7
2023-05-08T09:30:04.737Z,1.6
2023-05-08T09:32:02.453Z,2.0
2023-05-08T09:34:02.793Z,1.4
2023-05-08T09:36:02.384Z,2.1
2023-05-08T09:38:02.534Z,1.8
2023-05-08T09:40:14.297Z,1.8
2023-05-08T09:42:04.139Z,1.7
2023-05-08T09:44:04.534Z,1.7
2023-05-08T09:46:21.998Z,1.7
2023-05-08T09:48:02.461Z,1.8
2023-05-08T09:50:04.748Z,1.7
2023-05-08T09:52:03.209Z,1.7
2023-05-08T09:54:05.273Z,1.8
2023-05-08T09:56:02.523Z,1.8
2023-05-08T09:58:03.711Z,1.8
2023-05-08T10:00:05.862Z,1.7
2023-05-08T10:02:11.861Z,1.6
2023-05-08T10:04:05.174Z,1.6
2023-05-08T10:06:12.991Z,1.6
2023-05-08T10:08:19.912Z,1.7
2023-05-08T10:10:04.621Z,1.7
2023-05-08T10:12:03.146Z,1.5
2023-05-08T10:14:03.380Z,1.8
2023-05-08T10:16:03.033Z,1.8
2023-05-08T10:18:05.475Z,1.8
2023-05-08T10:20:07.590Z,1.9
2023-05-08T10:22:03.992Z,1.8
2023-05-08T10:24:05.489Z,1.8
2023-05-08T10:26:10.607Z,1.9
2023-05-08T10:28:16.295Z,1.7
2023-05-08T10:30:04.172Z,1.9
2023-05-08T10:32:06.478Z,1.6
2023-05-08T10:34:03.610Z,1.7
2023-05-08T10:36:03.174Z,1.8
2023-05-08T10:38:03.973Z,1.8
2023-05-08T10:40:04.581Z,1.8
2023-05-08T10:42:02.682Z,1.8
2023-05-08T10:44:04.157Z,1.7
2023-05-08T10:46:10.987Z,1.6
2023-05-08T10:48:13.533Z,1.7
2023-05-08T10:50:16.422Z,1.7
2023-05-08T10:52:12.134Z,1.9
2023-05-08T10:54:10.870Z,1.7
2023-05-08T10:56:02.672Z,1.8
2023-05-08T10:58:03.276Z,1.7
2023-05-08T11:00:02.677Z,1.7
2023-05-08T11:02:05.741Z,1.7
2023-05-08T11:04:20.423Z,1.7
2023-05-08T11:06:02.399Z,1.6
2023-05-08T11:08:02.380Z,1.8
2023-05-08T11:10:13.753Z,1.6
2023-05-08T11:12:08.402Z,2.0
2023-05-08T11:14:14.089Z,1.6
2023-05-08T11:16:03.378Z,1.8
2023-05-08T11:18:04.547Z,2.0
2023-05-08T11:20:04.848Z,1.9
2023-05-08T11:22:14.531Z,1.9
2023-05-08T11:24:10.938Z,1.9
2023-05-08T11:26:04.824Z,2.0
2023-05-08T11:28:13.335Z,1.9
2023-05-08T11:30:20.630Z,2.3
2023-05-08T11:32:02.419Z,2.0
2023-05-08T11:34:02.437Z,2.2
2023-05-08T11:36:13.032Z,2.1
2023-05-08T11:38:14.808Z,2.4
2023-05-08T11:40:21.495Z,2.1
2023-05-08T11:42:21.447Z,2.0
2023-05-08T11:44:20.642Z,2.5
2023-05-08T11:46:04.119Z,2.6
2023-05-08T11:48:02.425Z,2.4
2023-05-08T11:50:03.526Z,2.1
2023-05-08T11:52:05.340Z,2.5
2023-05-08T11:54:04.093Z,2.3
2023-05-08T11:56:03.812Z,2.1
2023-05-08T11:58:11.372Z,1.8
2023-05-08T12:00:05.325Z,2.1
2023-05-08T12:04:05.532Z,2.3
2023-05-08T12:06:02.683Z,2.4
2023-05-08T12:08:05.650Z,2.3
2023-05-08T12:10:04.702Z,2.5
2023-05-08T12:12:02.421Z,2.4
2023-05-08T12:14:02.792Z,2.1
2023-05-08T12:16:02.430Z,2.2
2023-05-08T12:18:03.188Z,2.1
2023-05-08T12:20:14.147Z,2.1
2023-05-08T12:22:02.451Z,1.8
2023-05-08T12:24:05.793Z,2.4
2023-05-08T12:26:02.612Z,2.0
2023-05-08T12:28:02.456Z,2.0
2023-05-08T12:30:06.906Z,1.9
2023-05-08T12:32:02.980Z,2.1
2023-05-08T12:34:03.131Z,2.3
2023-05-08T12:36:02.637Z,2.2
2023-05-08T12:38:03.086Z,1.9
2023-05-08T12:40:02.736Z,1.9
2023-05-08T12:42:02.426Z,2.0
2023-05-08T12:44:02.581Z,2.0
2023-05-08T12:46:04.113Z,2.0
2023-05-08T12:48:04.289Z,2.0
2023-05-08T12:50:02.646Z,1.8
2023-05-08T12:52:03.813Z,1.8
2023-05-08T12:54:02.619Z,1.9
2023-05-08T12:56:05.648Z,2.1
2023-05-08T12:58:04.942Z,1.9
2023-05-08T13:00:05.363Z,2.1
2023-05-08T13:02:02.945Z,1.9
2023-05-08T13:04:03.348Z,2.0
2023-05-08T13:06:03.071Z,1.7
2023-05-08T13:08:04.557Z,1.7
2023-05-08T13:10:03.984Z,1.9
2023-05-08T13:12:03.252Z,1.8
2023-05-08T13:14:02.560Z,2.1
2023-05-08T13:16:04.390Z,1.8
2023-05-08T13:18:02.685Z,2.0
2023-05-08T13:20:05.812Z,2.1
2023-05-08T13:22:02.538Z,2.0
2023-05-08T13:24:02.375Z,2.0
2023-05-08T13:26:03.518Z,1.9
2023-05-08T13:28:03.809Z,2.2
2023-05-08T13:30:02.419Z,1.8
2023-05-08T13:32:02.621Z,1.9
2023-05-08T13:34:02.477Z,2.1
2023-05-08T13:36:02.538Z,1.9
2023-05-08T13:38:03.425Z,2.0
2023-05-08T13:40:03.095Z,1.9
2023-05-08T13:42:02.677Z,2.0
2023-05-08T13:44:02.436Z,1.7
2023-05-08T13:46:04.767Z,1.9
2023-05-08T13:48:02.411Z,1.9
2023-05-08T13:50:04.003Z,1.9
2023-05-08T13:52:02.447Z,2.0
2023-05-08T13:54:03.280Z,1.7
2023-05-08T13:56:02.388Z,2.0
2023-05-08T13:58:03.205Z,1.8
2023-05-08T14:00:03.482Z,1.8
2023-05-08T14:02:02.790Z,1.7
2023-05-08T14:04:02.489Z,1.7
2023-05-08T14:06:02.409Z,1.6
2023-05-08T14:08:02.993Z,1.8
2023-05-08T14:10:03.422Z,1.9
2023-05-08T14:12:02.481Z,1.7
2023-05-08T14:14:03.068Z,1.8
2023-05-08T14:16:05.982Z,1.6
2023-05-08T14:18:02.409Z,1.8
2023-05-08T14:20:03.470Z,1.9
2023-05-08T14:22:02.414Z,2.0
2023-05-08T14:24:03.362Z,1.9
2023-05-08T14:26:02.592Z,2.1
2023-05-08T14:28:02.387Z,1.9
2023-05-08T14:30:03.397Z,1.8
2023-05-08T14:32:02.530Z,1.6
2023-05-08T14:34:02.406Z,1.9
2023-05-08T14:36:02.797Z,1.7
2023-05-08T14:38:02.568Z,1.7
2023-05-08T14:40:03.725Z,1.8
2023-05-08T14:42:20.735Z,1.8
2023-05-08T14:44:02.411Z,1.7
2023-05-08T14:46:02.454Z,1.8
2023-05-08T14:48:02.675Z,1.7
2023-05-08T14:50:03.129Z,1.6
2023-05-08T14:52:03.058Z,1.6
2023-05-08T14:54:02.735Z,1.6
2023-05-08T14:56:03.301Z,1.8
2023-05-08T14:58:02.590Z,1.6
2023-05-08T15:00:03.436Z,1.7
2023-05-08T15:02:02.634Z,1.8
2023-05-08T15:04:02.563Z,1.9
2023-05-08T15:06:04.285Z,1.7
2023-05-08T15:08:02.479Z,1.8
2023-05-08T15:10:03.604Z,1.8
2023-05-08T15:12:03.412Z,1.7
2023-05-08T15:14:03.153Z,1.6
2023-05-08T15:16:02.428Z,1.6
2023-05-08T15:18:02.771Z,1.8
2023-05-08T15:20:02.963Z,1.9
2023-05-08T15:22:03.390Z,1.6
2023-05-08T15:24:02.496Z,1.5
2023-05-08T15:26:03.437Z,1.6
2023-05-08T15:28:02.417Z,1.3
2023-05-08T15:30:02.863Z,1.6
2023-05-08T15:32:03.276Z,1.4
2023-05-08T15:34:02.941Z,1.5
2023-05-08T15:36:02.398Z,1.6
2023-05-08T15:38:05.388Z,1.4
2023-05-08T15:40:03.192Z,1.6
2023-05-08T15:42:04.065Z,1.5
2023-05-08T15:44:02.665Z,1.5
2023-05-08T15:46:02.532Z,1.6
2023-05-08T15:48:02.482Z,1.5
2023-05-08T15:50:03.035Z,1.8
2023-05-08T15:52:02.547Z,1.5
2023-05-08T15:54:02.790Z,1.4
2023-05-08T15:56:05.234Z,1.5
2023-05-08T15:58:02.459Z,1.3
2023-05-08T16:00:02.489Z,1.5
2023-05-08T16:02:03.255Z,1.3
2023-05-08T16:04:02.578Z,1.4
2023-05-08T16:06:03.884Z,1.4
2023-05-08T16:08:02.919Z,1.3
2023-05-08T16:10:04.169Z,1.3
2023-05-08T16:12:03.073Z,1.3
2023-05-08T16:14:02.665Z,1.3
2023-05-08T16:16:03.959Z,1.4
2023-05-08T16:18:03.293Z,1.3
2023-05-08T16:20:03.282Z,1.5
2023-05-08T16:22:02.420Z,1.4
2023-05-08T16:24:03.303Z,1.3
2023-05-08T16:26:02.634Z,1.3
2023-05-08T16:28:03.089Z,1.4
2023-05-08T16:30:03.289Z,1.5
2023-05-08T16:32:02.417Z,1.4
2023-05-08T16:34:02.361Z,1.4
2023-05-08T16:36:02.437Z,1.4
2023-05-08T16:38:04.143Z,1.3
2023-05-08T16:40:02.812Z,1.4
2023-05-08T16:42:02.559Z,1.2
2023-05-08T16:44:02.363Z,1.3
2023-05-08T16:46:05.404Z,1.3
2023-05-08T16:48:03.492Z,1.4
2023-05-08T16:50:04.038Z,1.4
2023-05-08T16:52:02.460Z,1.3
2023-05-08T16:54:03.256Z,1.4
2023-05-08T16:56:02.387Z,1.3
2023-05-08T16:58:03.993Z,1.3
2023-05-08T17:00:03.483Z,1.2
2023-05-08T17:02:02.920Z,1.3
2023-05-08T17:04:02.634Z,1.3
2023-05-08T17:06:05.811Z,1.3
2023-05-08T17:08:03.041Z,1.3
2023-05-08T17:10:02.621Z,1.3
2023-05-08T17:12:02.461Z,1.3
2023-05-08T17:14:02.794Z,1.2
2023-05-08T17:16:03.127Z,1.5
2023-05-08T17:18:02.636Z,1.3
2023-05-08T17:20:03.075Z,1.3
2023-05-08T17:22:03.026Z,1.2
2023-05-08T17:24:02.407Z,1.4
2023-05-08T17:26:02.746Z,1.3
2023-05-08T17:28:03.806Z,1.3
2023-05-08T17:30:04.366Z,1.3
2023-05-08T17:32:02.480Z,1.2
2023-05-08T17:34:02.673Z,1.3
2023-05-08T17:36:03.338Z,1.2
2023-05-08T17:38:02.586Z,1.3
2023-05-08T17:40:02.610Z,1.3
2023-05-08T17:42:02.568Z,1.5
2023-05-08T17:44:03.619Z,1.4
2023-05-08T17:46:02.999Z,1.3
2023-05-08T17:48:03.197Z,1.6
2023-05-08T17:50:04.226Z,1.4
2023-05-08T17:52:04.284Z,1.3
2023-05-08T17:54:03.881Z,1.3
2023-05-08T17:56:02.380Z,1.5
2023-05-08T17:58:02.986Z,1.5
2023-05-08T18:00:03.501Z,1.5
2023-05-08T18:02:03.194Z,1.5
2023-05-08T18:04:02.521Z,1.2
2023-05-08T18:06:02.783Z,1.5
2023-05-08T18:08:02.935Z,1.5
2023-05-08T18:10:02.905Z,1.5
2023-05-08T18:12:03.078Z,1.5
2023-05-08T18:14:02.601Z,1.4
2023-05-08T18:16:02.436Z,1.5
2023-05-08T18:18:02.652Z,1.5
2023-05-08T18:20:06.129Z,1.5
2023-05-08T18:22:02.439Z,1.4
2023-05-08T18:24:02.633Z,1.3
2023-05-08T18:26:03.457Z,1.3
2023-05-08T18:28:02.683Z,1.3
2023-05-08T18:30:02.676Z,1.4
2023-05-08T18:32:02.394Z,1.4
2023-05-08T18:34:02.399Z,1.6
2023-05-08T18:36:04.552Z,1.4
2023-05-08T18:38:02.552Z,1.4
2023-05-08T18:40:02.541Z,1.5
2023-05-08T18:42:02.802Z,1.4
2023-05-08T18:44:04.495Z,1.4
2023-05-08T18:46:08.109Z,1.2
2023-05-08T18:48:02.446Z,1.3
2023-05-08T18:50:03.222Z,1.3
2023-05-08T18:52:02.600Z,1.2
2023-05-08T18:54:03.244Z,1.3
2023-05-08T18:56:03.802Z,1.4
2023-05-08T18:58:05.434Z,1.2
2023-05-08T19:00:03.535Z,1.4
2023-05-08T19:02:02.649Z,1.4
2023-05-08T19:04:03.638Z,1.4
2023-05-08T19:06:03.255Z,1.2
2023-05-08T19:08:02.438Z,1.6
2023-05-08T19:10:03.665Z,1.5
2023-05-08T19:12:02.446Z,1.4
2023-05-08T19:14:03.479Z,1.5
2023-05-08T19:16:02.515Z,1.3
2023-05-08T19:18:03.798Z,1.3
2023-05-08T19:20:02.672Z,1.3
2023-05-08T19:22:02.878Z,1.4
2023-05-08T19:24:03.009Z,1.5
2023-05-08T19:26:02.627Z,1.4
2023-05-08T19:28:04.132Z,1.4
2023-05-08T19:30:02.695Z,1.5
2023-05-08T19:32:02.663Z,1.7
2023-05-08T19:34:02.646Z,1.6
2023-05-08T19:36:02.984Z,1.3
2023-05-08T19:38:03.113Z,1.4
2023-05-08T19:40:02.521Z,1.4
2023-05-08T19:42:02.689Z,1.5
2023-05-08T19:44:02.363Z,1.6
2023-05-08T19:46:02.735Z,1.6
2023-05-08T19:48:04.643Z,1.6
2023-05-08T19:50:02.589Z,1.4
2023-05-08T19:52:02.598Z,1.4
2023-05-08T19:54:02.657Z,1.5
2023-05-08T19:56:03.302Z,1.4
2023-05-08T19:58:02.354Z,1.5
2023-05-08T20:00:02.433Z,1.3
2023-05-08T20:02:03.083Z,1.3
2023-05-08T20:04:02.623Z,1.3
2023-05-08T20:06:02.720Z,1.3
2023-05-08T20:08:03.081Z,1.2
2023-05-08T20:10:03.086Z,1.4
2023-05-08T20:12:02.331Z,1.2
2023-05-08T20:14:03.172Z,1.2
2023-05-08T20:16:02.589Z,1.3
2023-05-08T20:18:02.709Z,1.2
2023-05-08T20:20:03.394Z,1.5
2023-05-08T20:22:02.378Z,1.3
2023-05-08T20:24:02.562Z,1.3
2023-05-08T20:26:04.594Z,1.3
2023-05-08T20:28:02.893Z,1.4
2023-05-08T20:30:02.691Z,1.5
2023-05-08T20:32:02.689Z,1.4
2023-05-08T20:34:02.476Z,1.4
2023-05-08T20:36:02.795Z,1.3
2023-05-08T20:38:02.563Z,1.6
2023-05-08T20:40:04.187Z,1.3
2023-05-08T20:42:02.754Z,1.4
2023-05-08T20:44:02.605Z,1.6
2023-05-08T20:46:02.547Z,1.5
2023-05-08T20:48:02.589Z,1.4
2023-05-08T20:50:03.577Z,1.5
2023-05-08T20:52:04.926Z,1.2
2023-05-08T20:54:02.789Z,1.3
2023-05-08T20:56:03.900Z,1.2
2023-05-08T20:58:03.688Z,1.4
2023-05-08T21:00:03.125Z,1.3
2023-05-08T21:02:02.555Z,1.4
2023-05-08T21:04:02.726Z,1.5
2023-05-08T21:06:03.257Z,1.3
2023-05-08T21:08:03.805Z,1.5
2023-05-08T21:10:02.576Z,1.4
2023-05-08T21:12:02.325Z,1.4
2023-05-08T21:14:03.138Z,1.6
2023-05-08T21:16:02.628Z,1.4
2023-05-08T21:18:02.821Z,1.3
2023-05-08T21:20:03.026Z,1.4
2023-05-08T21:22:02.493Z,1.3
2023-05-08T21:24:03.739Z,1.8
2023-05-08T21:26:02.568Z,1.4
2023-05-08T21:28:02.410Z,1.6
2023-05-08T21:30:03.498Z,1.3
2023-05-08T21:32:02.506Z,1.6
2023-05-08T21:34:03.180Z,1.4
2023-05-08T21:36:02.561Z,1.5
2023-05-08T21:38:02.666Z,1.4
2023-05-08T21:40:03.801Z,1.6
2023-05-08T21:42:03.059Z,1.6
2023-05-08T21:44:03.097Z,1.4
2023-05-08T21:46:05.121Z,1.6
2023-05-08T21:48:03.341Z,1.5
2023-05-08T21:50:02.660Z,1.4
2023-05-08T21:52:03.244Z,1.5
2023-05-08T21:54:02.628Z,1.5
2023-05-08T21:56:02.386Z,1.6
2023-05-08T21:58:02.661Z,1.4
2023-05-08T22:00:03.317Z,1.7
2023-05-08T22:02:02.680Z,1.4
2023-05-08T22:04:03.238Z,1.6
2023-05-08T22:06:02.474Z,1.6
2023-05-08T22:08:02.384Z,1.4
2023-05-08T22:10:03.546Z,1.7
2023-05-08T22:12:03.173Z,1.4
2023-05-08T22:14:02.570Z,1.4
2023-05-08T22:16:02.652Z,1.5
2023-05-08T22:18:02.910Z,1.5
2023-05-08T22:20:02.492Z,1.4
2023-05-08T22:22:02.704Z,1.3
2023-05-08T22:24:02.378Z,1.4
2023-05-08T22:26:03.372Z,1.4
2023-05-08T22:28:02.497Z,1.6
2023-05-08T22:30:02.989Z,1.4
2023-05-08T22:32:02.858Z,1.3
2023-05-08T22:34:02.682Z,1.5
2023-05-08T22:36:02.441Z,1.5
2023-05-08T22:38:02.800Z,1.4
2023-05-08T22:40:02.438Z,1.4
2023-05-08T22:42:02.525Z,1.4
2023-05-08T22:44:02.464Z,1.4
2023-05-08T22:46:02.995Z,1.3
2023-05-08T22:48:03.291Z,1.4
2023-05-08T22:50:07.616Z,1.3
2023-05-08T22:52:02.448Z,1.6
2023-05-08T22:54:03.207Z,1.6
2023-05-08T22:56:02.410Z,1.6
2023-05-08T22:58:03.408Z,1.6
2023-05-08T23:00:03.704Z,1.4
2023-05-08T23:02:02.590Z,1.4
2023-05-08T23:04:02.481Z,1.3
2023-05-08T23:06:02.600Z,1.4
2023-05-08T23:08:02.940Z,1.4
2023-05-08T23:10:02.799Z,1.4
2023-05-08T23:12:03.455Z,1.4
2023-05-08T23:14:02.610Z,1.3
2023-05-08T23:16:03.004Z,1.4
2023-05-08T23:18:03.182Z,1.3
2023-05-08T23:20:02.544Z,1.5
2023-05-08T23:22:02.598Z,1.3
2023-05-08T23:24:04.368Z,1.3
2023-05-08T23:26:04.413Z,1.4
2023-05-08T23:28:02.438Z,1.6
2023-05-08T23:30:02.868Z,1.4
2023-05-08T23:32:02.393Z,1.4
2023-05-08T23:34:02.457Z,1.5
2023-05-08T23:36:03.172Z,1.4
2023-05-08T23:38:02.558Z,1.4
2023-05-08T23:40:05.509Z,1.3
2023-05-08T23:42:02.621Z,1.6
2023-05-08T23:44:02.668Z,1.8
2023-05-08T23:46:02.641Z,1.5
2023-05-08T23:48:02.600Z,1.4
2023-05-08T23:50:02.783Z,1.4
2023-05-08T23:52:02.467Z,1.5
2023-05-08T23:54:02.907Z,1.4
2023-05-08T23:56:02.632Z,1.5
2023-05-08T23:58:03.462Z,1.4
